Time;durP1;ratioP1;P1;durP2;ratioP2;P2;SDS_P1;SDS_P2;PMS_P1;PMS_P2;Temp;Humidity;BMP_temperature;BMP_pressure;BME280_temperature;BME280_humidity;BME280_pressure;Samples;Min_cycle;Max_cycle;Signal;HPM_P1;HPM_P2
2021/04/30 00:00:23;;;;;;;23.70;7.15;;;;;;;15.24;64.04;93681.00;5134520;27;20081;-70
2021/04/30 00:02:49;;;;;;;16.75;7.32;;;;;;;15.27;63.56;93678.75;5127511;27;20099;-70
2021/04/30 00:05:14;;;;;;;21.70;8.57;;;;;;;15.28;63.49;93683.00;5126837;27;20023;-71
2021/04/30 00:07:40;;;;;;;19.38;8.00;;;;;;;15.23;63.92;93675.97;5134437;27;20420;-70
2021/04/30 00:10:06;;;;;;;14.70;6.88;;;;;;;15.14;64.36;93672.69;5134386;27;20031;-70
2021/04/30 00:12:32;;;;;;;16.38;7.15;;;;;;;15.11;64.47;93676.06;5130299;27;20475;-69
2021/04/30 00:14:57;;;;;;;17.17;7.38;;;;;;;15.08;64.50;93688.25;5123745;27;20063;-70
2021/04/30 00:17:23;;;;;;;22.15;8.20;;;;;;;15.04;64.45;93692.75;5123229;27;20047;-70
2021/04/30 00:19:48;;;;;;;21.45;9.38;;;;;;;14.97;65.29;93679.16;5134170;27;20482;-71
2021/04/30 00:22:13;;;;;;;31.08;9.30;;;;;;;14.98;65.57;93681.50;5120419;27;20024;-70
2021/04/30 00:24:39;;;;;;;28.63;10.75;;;;;;;14.93;66.00;93689.03;5113615;28;20035;-70
2021/04/30 00:27:05;;;;;;;24.52;9.82;;;;;;;14.95;65.94;93695.59;5135666;27;20056;-71
2021/04/30 00:29:31;;;;;;;18.48;9.63;;;;;;;14.93;66.26;93687.13;5127890;27;20085;-70
2021/04/30 00:31:56;;;;;;;19.20;9.63;;;;;;;14.94;66.11;93696.75;5135394;27;20084;-70
2021/04/30 00:34:22;;;;;;;18.65;10.00;;;;;;;14.99;66.17;93709.91;5133757;27;20035;-70
2021/04/30 00:36:47;;;;;;;21.98;10.10;;;;;;;14.92;66.61;93709.72;5120736;27;20538;-70
2021/04/30 00:39:13;;;;;;;19.70;10.13;;;;;;;14.92;66.62;93717.78;5133837;27;20088;-70
2021/04/30 00:41:42;;;;;;;17.73;9.50;;;;;;;14.93;66.38;93721.22;5135012;27;20058;-70
2021/04/30 00:44:09;;;;;;;30.05;12.32;;;;;;;14.93;66.76;93713.94;5133745;27;20019;-70
2021/04/30 00:46:34;;;;;;;25.45;11.80;;;;;;;14.88;67.35;93730.31;5133311;27;20056;-69
2021/04/30 00:49:01;;;;;;;20.73;12.13;;;;;;;14.88;67.59;93713.41;5121544;27;20047;-69
2021/04/30 00:51:27;;;;;;;25.25;11.55;;;;;;;14.89;67.44;93723.81;5119458;27;20047;-68
2021/04/30 00:53:53;;;;;;;19.58;11.95;;;;;;;14.85;67.99;93718.34;5121572;27;20088;-69
2021/04/30 00:56:20;;;;;;;23.52;13.43;;;;;;;14.81;68.36;93716.69;5132383;27;20018;-69
2021/04/30 00:58:45;;;;;;;24.60;13.23;;;;;;;14.75;68.59;93718.84;5138337;27;20464;-69
2021/04/30 01:01:12;;;;;;;27.58;13.25;;;;;;;14.69;68.89;93724.81;5132480;27;20046;-69
2021/04/30 01:03:41;;;;;;;27.27;12.90;;;;;;;14.63;69.11;93730.44;5132928;27;20031;-70
2021/04/30 01:06:06;;;;;;;34.28;13.73;;;;;;;14.61;69.25;93731.88;5133163;27;20055;-68
2021/04/30 01:08:32;;;;;;;33.33;13.93;;;;;;;14.54;69.41;93727.06;5123577;27;20110;-68
2021/04/30 01:10:58;;;;;;;28.33;13.43;;;;;;;14.54;69.76;93721.69;5132264;27;20015;-70
2021/04/30 01:13:23;;;;;;;25.40;14.05;;;;;;;14.54;69.84;93732.44;5127631;27;20031;-70
2021/04/30 01:15:48;;;;;;;27.10;14.52;;;;;;;14.45;70.22;93726.44;5120593;27;20026;-70
2021/04/30 01:18:14;;;;;;;28.27;15.52;;;;;;;14.49;70.43;93732.69;5129670;27;20027;-70
2021/04/30 01:20:39;;;;;;;24.90;14.55;;;;;;;14.48;70.27;93728.44;5129511;27;20031;-71
2021/04/30 01:23:05;;;;;;;25.90;14.80;;;;;;;14.46;70.73;93733.34;5131174;27;20466;-71
2021/04/30 01:25:35;;;;;;;27.67;14.05;;;;;;;14.45;70.57;93726.44;5138275;27;20027;-69
2021/04/30 01:28:02;;;;;;;31.63;14.00;;;;;;;14.50;70.49;93728.09;5132099;27;20106;-69
2021/04/30 01:30:30;;;;;;;25.85;14.85;;;;;;;14.55;70.39;93744.72;5132891;27;20379;-69
2021/04/30 01:32:56;;;;;;;27.27;13.98;;;;;;;14.52;70.79;93733.91;5134234;27;20023;-71
2021/04/30 01:35:31;;;;;;;24.88;16.10;;;;;;;14.56;70.69;93749.00;5132805;27;20019;-70
2021/04/30 01:37:59;;;;;;;27.13;15.18;;;;;;;14.58;70.25;93746.75;5133927;27;20393;-70
2021/04/30 01:40:27;;;;;;;31.23;14.00;;;;;;;14.62;70.05;93750.31;5132873;27;20026;-69
2021/04/30 01:42:59;;;;;;;22.27;14.50;;;;;;;14.64;69.87;93752.66;5115243;27;20035;-70
2021/04/30 01:45:26;;;;;;;29.27;14.02;;;;;;;14.66;69.84;93753.09;5130146;27;20654;-69
2021/04/30 01:47:52;;;;;;;25.60;13.80;;;;;;;14.61;70.34;93745.28;5133550;27;20055;-70
2021/04/30 01:50:17;;;;;;;28.77;14.50;;;;;;;14.70;69.70;93745.16;5133653;27;20023;-69
2021/04/30 01:52:43;;;;;;;33.65;14.43;;;;;;;14.65;69.63;93754.19;5132418;27;20084;-70
2021/04/30 01:55:08;;;;;;;30.25;13.52;;;;;;;14.66;69.92;93755.00;5120672;27;20034;-71
2021/04/30 01:57:35;;;;;;;30.65;15.45;;;;;;;14.59;70.33;93748.31;5127457;27;20027;-69
2021/04/30 02:00:00;;;;;;;25.42;14.20;;;;;;;14.58;70.24;93751.34;5123711;27;20069;-69
2021/04/30 02:02:26;;;;;;;24.77;14.10;;;;;;;14.52;70.22;93739.25;5127813;27;20023;-69
2021/04/30 02:04:51;;;;;;;29.42;15.18;;;;;;;14.40;70.76;93737.38;5132059;27;20052;-70
2021/04/30 02:07:17;;;;;;;30.02;14.02;;;;;;;14.39;70.68;93746.53;5131899;27;20027;-70
2021/04/30 02:09:42;;;;;;;33.25;15.63;;;;;;;14.39;70.58;93755.38;5131913;27;20442;-70
2021/04/30 02:12:08;;;;;;;29.05;14.88;;;;;;;14.39;70.58;93749.22;5120049;27;20024;-71
2021/04/30 02:14:34;;;;;;;28.63;14.20;;;;;;;14.36;70.84;93752.59;5128153;27;20031;-70
2021/04/30 02:16:59;;;;;;;23.83;13.60;;;;;;;14.34;70.71;93766.34;5131756;27;20103;-70
2021/04/30 02:19:24;;;;;;;25.75;14.95;;;;;;;14.33;70.37;93753.25;5123371;27;20035;-70
2021/04/30 02:21:50;;;;;;;29.88;15.20;;;;;;;14.27;70.69;93759.97;5125634;27;20027;-71
2021/04/30 02:24:15;;;;;;;33.08;15.93;;;;;;;14.19;70.98;93759.78;5133050;27;20114;-70
2021/04/30 02:26:41;;;;;;;24.65;15.43;;;;;;;14.20;71.33;93761.31;5128884;27;20032;-70
2021/04/30 02:29:07;;;;;;;29.20;14.77;;;;;;;14.15;71.45;93753.53;5123322;27;20019;-70
2021/04/30 02:31:32;;;;;;;34.03;15.55;;;;;;;14.06;72.08;93750.19;5141683;27;20031;-71
2021/04/30 02:33:58;;;;;;;33.58;15.25;;;;;;;14.09;71.50;93762.91;5119568;27;20498;-71
2021/04/30 02:36:23;;;;;;;23.48;12.93;;;;;;;14.02;71.33;93758.13;5112416;28;20030;-71
2021/04/30 02:38:49;;;;;;;22.50;14.70;;;;;;;14.04;71.06;93749.72;5111470;28;20028;-71
2021/04/30 02:41:14;;;;;;;24.73;12.35;;;;;;;14.07;70.81;93753.66;5112551;28;20031;-71
2021/04/30 02:43:39;;;;;;;22.58;13.35;;;;;;;14.05;70.87;93756.66;5110887;28;20122;-71
2021/04/30 02:46:05;;;;;;;25.48;13.38;;;;;;;14.02;70.83;93776.09;5121876;27;20023;-70
2021/04/30 02:48:36;;;;;;;25.50;13.50;;;;;;;14.04;71.03;93768.50;5132689;27;20104;-70
2021/04/30 02:51:08;;;;;;;22.65;13.55;;;;;;;13.96;71.56;93766.72;5131845;27;20026;-70
2021/04/30 02:53:34;;;;;;;27.23;12.68;;;;;;;13.99;70.92;93766.84;5131579;27;20047;-70
2021/04/30 02:56:00;;;;;;;24.38;11.85;;;;;;;13.95;70.93;93771.31;5133003;27;20059;-70
2021/04/30 02:58:26;;;;;;;17.90;10.15;;;;;;;13.84;70.35;93781.69;5148642;27;20023;-71
2021/04/30 03:00:52;;;;;;;19.38;9.13;;;;;;;13.82;69.73;93778.56;5132849;27;20023;-71
2021/04/30 03:03:17;;;;;;;21.90;9.98;;;;;;;13.80;69.75;93780.03;5131422;28;20026;-70
2021/04/30 03:05:43;;;;;;;19.30;11.05;;;;;;;13.79;70.09;93779.22;5130173;27;20083;-69
2021/04/30 03:08:08;;;;;;;22.52;10.50;;;;;;;13.75;69.72;93778.31;5127503;28;20030;-70
2021/04/30 03:10:34;;;;;;;25.95;10.45;;;;;;;13.74;69.53;93782.13;5132428;27;20072;-70
2021/04/30 03:12:59;;;;;;;20.88;9.95;;;;;;;13.73;69.12;93788.59;5123877;27;20015;-69
2021/04/30 03:15:27;;;;;;;19.95;8.20;;;;;;;13.68;68.68;93794.19;5146600;27;20067;-70
2021/04/30 03:17:52;;;;;;;18.75;7.82;;;;;;;13.66;68.36;93791.06;5126026;27;20413;-70
2021/04/30 03:20:18;;;;;;;24.85;8.40;;;;;;;13.61;68.11;93793.94;5131087;28;20023;-70
2021/04/30 03:22:44;;;;;;;20.30;8.05;;;;;;;13.59;68.09;93801.53;5132739;27;20023;-70
2021/04/30 03:25:12;;;;;;;15.80;6.88;;;;;;;13.55;67.50;93801.41;5133847;27;20486;-69
2021/04/30 03:27:37;;;;;;;20.23;7.65;;;;;;;13.52;67.72;93795.97;5131362;27;20139;-70
2021/04/30 03:30:04;;;;;;;21.45;6.72;;;;;;;13.53;67.47;93797.50;5126486;27;20035;-70
2021/04/30 03:32:29;;;;;;;28.20;10.95;;;;;;;13.53;67.23;93814.34;5126382;27;20055;-70
2021/04/30 03:34:55;;;;;;;29.23;8.38;;;;;;;13.49;67.09;93810.00;5126473;27;20044;-69
2021/04/30 03:37:22;;;;;;;16.75;8.13;;;;;;;13.50;66.90;93811.56;5134689;27;20031;-70
2021/04/30 03:39:47;;;;;;;25.73;8.93;;;;;;;13.47;66.73;93814.91;5116893;27;20106;-70
2021/04/30 03:42:13;;;;;;;20.30;6.45;;;;;;;13.46;66.59;93818.72;5131650;27;20062;-70
2021/04/30 03:44:38;;;;;;;30.63;7.07;;;;;;;13.43;66.33;93810.22;5128449;27;20031;-69
2021/04/30 03:47:04;;;;;;;27.67;7.65;;;;;;;13.41;66.79;93815.13;5126767;27;20020;-68
2021/04/30 03:49:29;;;;;;;19.20;7.70;;;;;;;13.42;66.54;93814.00;5128782;27;20509;-69
2021/04/30 03:51:55;;;;;;;13.75;6.15;;;;;;;13.41;66.40;93825.03;5134370;27;20035;-69
2021/04/30 03:54:20;;;;;;;14.18;5.38;;;;;;;13.41;66.02;93817.81;5128744;27;20478;-69
2021/04/30 03:56:46;;;;;;;16.48;5.60;;;;;;;13.39;65.97;93835.28;5134647;27;20027;-70
2021/04/30 03:59:11;;;;;;;23.45;7.80;;;;;;;13.32;66.32;93805.63;5151929;27;20022;-71
2021/04/30 04:01:36;;;;;;;28.48;7.70;;;;;;;13.30;66.35;93821.22;5129147;27;20494;-70
2021/04/30 04:04:08;;;;;;;19.20;6.68;;;;;;;13.30;66.22;93827.34;5115622;28;20027;-71
2021/04/30 04:06:33;;;;;;;25.83;7.80;;;;;;;13.37;66.23;93832.97;5114035;28;20080;-71
2021/04/30 04:08:59;;;;;;;23.65;6.95;;;;;;;13.40;66.32;93821.59;5115391;28;20486;-70
2021/04/30 04:11:24;;;;;;;24.88;7.60;;;;;;;13.49;66.39;93823.38;5116667;27;20038;-70
2021/04/30 04:13:50;;;;;;;23.20;8.20;;;;;;;13.52;66.49;93833.44;5135969;27;20027;-70
2021/04/30 04:16:15;;;;;;;17.92;6.88;;;;;;;13.58;66.07;93853.53;5135820;27;20011;-71
2021/04/30 04:18:40;;;;;;;16.00;6.13;;;;;;;13.64;66.08;93862.91;5129379;27;20028;-71
2021/04/30 04:21:06;;;;;;;11.75;5.47;;;;;;;13.62;66.13;93867.84;5113737;28;20024;-70
2021/04/30 04:23:31;;;;;;;20.00;7.32;;;;;;;13.70;66.10;93866.16;5113682;28;20118;-71
2021/04/30 04:25:57;;;;;;;25.27;8.20;;;;;;;13.70;67.37;93882.22;5115059;28;20028;-71
2021/04/30 04:28:22;;;;;;;21.15;8.45;;;;;;;13.79;67.84;93881.03;5113492;28;20388;-71
2021/04/30 04:30:47;;;;;;;25.88;9.90;;;;;;;13.74;69.17;93905.34;5113643;28;20023;-70
2021/04/30 04:33:13;;;;;;;24.05;9.10;;;;;;;13.87;69.26;93910.72;5116226;27;20023;-71
2021/04/30 04:35:39;;;;;;;27.17;11.80;;;;;;;13.84;70.47;93925.59;5122879;27;20027;-70
2021/04/30 04:38:05;;;;;;;23.73;12.05;;;;;;;13.91;71.08;93917.00;5134992;27;20482;-70
2021/04/30 04:40:30;;;;;;;23.27;12.63;;;;;;;13.96;71.29;93922.13;5128434;27;20054;-70
2021/04/30 04:42:56;;;;;;;27.55;13.98;;;;;;;14.03;71.37;93923.16;5124429;27;20054;-69
2021/04/30 04:45:22;;;;;;;27.10;13.40;;;;;;;14.12;71.22;93931.09;5144881;27;20110;-69
2021/04/30 04:47:48;;;;;;;28.27;14.88;;;;;;;14.17;71.44;93922.06;5138540;27;20040;-69
2021/04/30 04:50:14;;;;;;;23.50;14.48;;;;;;;14.22;71.13;93927.97;5119801;27;20027;-70
2021/04/30 04:52:40;;;;;;;26.23;13.35;;;;;;;14.25;70.88;93913.91;5126985;27;20038;-70
2021/04/30 04:55:09;;;;;;;25.90;14.10;;;;;;;14.37;70.60;93928.41;5128058;27;20031;-71
2021/04/30 04:57:34;;;;;;;23.90;12.82;;;;;;;14.42;70.17;93928.22;5118110;27;20112;-70
2021/04/30 04:59:59;;;;;;;27.38;13.40;;;;;;;14.47;70.47;93940.59;5118235;27;20035;-70
2021/04/30 05:02:25;;;;;;;27.85;14.18;;;;;;;14.51;70.62;93912.00;5131345;27;20537;-70
2021/04/30 05:04:50;;;;;;;29.05;12.93;;;;;;;14.62;70.14;93926.56;5133040;27;20519;-70
2021/04/30 05:07:16;;;;;;;34.08;15.43;;;;;;;14.70;70.17;93911.47;5133065;27;20027;-70
2021/04/30 05:09:41;;;;;;;28.15;15.02;;;;;;;14.85;69.73;93919.59;5121586;27;20028;-70
2021/04/30 05:12:08;;;;;;;23.00;13.73;;;;;;;15.00;69.00;93898.53;5130956;27;20039;-69
2021/04/30 05:14:33;;;;;;;28.58;13.52;;;;;;;15.11;68.39;93901.56;5120929;27;20043;-70
2021/04/30 05:16:58;;;;;;;30.05;12.70;;;;;;;15.23;68.03;93909.56;5121137;27;20031;-69
2021/04/30 05:19:24;;;;;;;32.60;14.95;;;;;;;15.29;68.00;93916.25;5129045;27;20490;-69
2021/04/30 05:21:49;;;;;;;32.88;14.38;;;;;;;15.41;67.58;93910.84;5132818;27;20092;-69
2021/04/30 05:24:15;;;;;;;30.55;14.60;;;;;;;15.54;67.30;93913.47;5132931;27;20118;-71
2021/04/30 05:26:41;;;;;;;26.55;13.52;;;;;;;15.69;66.96;93898.50;5133626;27;20027;-70
2021/04/30 05:29:07;;;;;;;26.77;11.02;;;;;;;15.81;66.61;93896.59;5134353;27;20110;-70
2021/04/30 05:31:34;;;;;;;23.13;9.73;;;;;;;16.00;65.00;93911.25;5134249;27;20031;-70
2021/04/30 05:34:00;;;;;;;24.75;10.23;;;;;;;16.14;63.95;93926.94;5134101;27;20023;-70
2021/04/30 05:36:25;;;;;;;20.40;8.57;;;;;;;16.24;64.02;93924.53;5132928;27;20387;-70
2021/04/30 05:38:51;;;;;;;19.40;9.98;;;;;;;16.39;63.53;93919.50;5134427;27;20023;-71
2021/04/30 05:41:16;;;;;;;23.30;11.07;;;;;;;16.48;63.78;93922.78;5132811;27;20019;-70
2021/04/30 05:43:42;;;;;;;18.88;10.23;;;;;;;16.57;63.91;93918.00;5132666;27;20031;-71
2021/04/30 05:46:07;;;;;;;30.15;11.35;;;;;;;16.69;63.55;93935.16;5133582;27;20027;-70
2021/04/30 05:48:33;;;;;;;29.42;9.50;;;;;;;16.80;62.48;93922.75;5132363;27;20490;-69
2021/04/30 05:50:58;;;;;;;26.83;9.88;;;;;;;16.93;61.60;93921.50;5132592;27;20114;-69
2021/04/30 05:53:24;;;;;;;20.17;10.80;;;;;;;17.05;61.06;93918.69;5114526;27;20088;-69
2021/04/30 05:55:49;;;;;;;16.90;9.25;;;;;;;17.15;60.91;93920.06;5114334;27;20030;-70
2021/04/30 05:58:15;;;;;;;21.67;9.52;;;;;;;17.24;60.76;93925.28;5123195;27;20023;-69
2021/04/30 06:00:41;;;;;;;14.15;7.68;;;;;;;17.34;59.87;93916.63;5132073;27;20070;-69
2021/04/30 06:03:06;;;;;;;17.25;7.20;;;;;;;17.42;58.79;93926.41;5133775;27;20470;-69
2021/04/30 06:05:32;;;;;;;19.13;7.55;;;;;;;17.40;57.67;93922.50;5123172;27;20046;-69
2021/04/30 06:07:57;;;;;;;16.38;6.90;;;;;;;17.51;57.23;93917.34;5132172;27;20031;-69
2021/04/30 06:10:23;;;;;;;25.40;7.25;;;;;;;17.59;57.17;93919.03;5124237;27;20028;-70
2021/04/30 06:12:48;;;;;;;24.50;7.70;;;;;;;17.62;57.58;93926.38;5112868;28;20038;-71
2021/04/30 06:15:14;;;;;;;25.40;9.27;;;;;;;17.71;58.15;93929.66;5111415;28;20114;-70
2021/04/30 06:17:39;;;;;;;20.35;9.55;;;;;;;17.82;57.87;93913.69;5131935;27;20481;-70
2021/04/30 06:20:06;;;;;;;24.00;9.82;;;;;;;17.88;58.16;93925.75;5131912;27;20041;-69
2021/04/30 06:22:31;;;;;;;21.08;9.82;;;;;;;18.00;58.70;93924.81;5129901;27;20015;-66
2021/04/30 06:24:56;;;;;;;21.95;9.07;;;;;;;18.11;58.08;93931.16;5114150;27;20026;-66
2021/04/30 06:27:22;;;;;;;23.58;8.52;;;;;;;18.19;57.63;93919.38;5124210;27;20106;-66
2021/04/30 06:29:47;;;;;;;26.27;8.82;;;;;;;18.30;57.61;93930.34;5128601;27;20034;-66
2021/04/30 06:32:13;;;;;;;37.72;8.45;;;;;;;18.40;57.19;93931.69;5130535;27;20079;-66
2021/04/30 06:34:38;;;;;;;19.17;9.18;;;;;;;18.48;56.73;93930.66;5118342;27;20027;-66
2021/04/30 06:37:04;;;;;;;13.40;7.28;;;;;;;18.58;55.35;93931.94;5124907;27;20016;-70
2021/04/30 06:39:29;;;;;;;21.23;7.85;;;;;;;18.64;54.52;93925.91;5131424;27;20498;-65
2021/04/30 06:41:56;;;;;;;27.45;8.95;;;;;;;18.60;54.94;93930.47;5131149;27;20083;-66
2021/04/30 06:44:22;;;;;;;17.70;9.02;;;;;;;18.70;54.71;93936.38;5129501;27;20031;-66
2021/04/30 06:46:48;;;;;;;17.52;7.45;;;;;;;18.73;54.33;93949.16;5129492;27;20126;-66
2021/04/30 06:49:14;;;;;;;20.13;7.80;;;;;;;18.82;53.27;93942.38;5130422;27;20483;-65
2021/04/30 06:51:39;;;;;;;19.35;7.40;;;;;;;18.92;52.75;93940.97;5129563;27;20027;-65
2021/04/30 06:54:04;;;;;;;16.25;7.45;;;;;;;18.96;52.15;93947.22;5126787;27;20563;-65
2021/04/30 06:56:31;;;;;;;26.77;8.13;;;;;;;19.04;52.32;93951.56;5128695;27;20126;-66
2021/04/30 06:58:59;;;;;;;20.25;5.72;;;;;;;19.15;51.32;93940.13;5125058;27;20503;-66
2021/04/30 07:01:25;;;;;;;19.88;6.45;;;;;;;19.13;51.04;93935.13;5128403;27;20048;-65
2021/04/30 07:03:51;;;;;;;15.77;6.05;;;;;;;19.25;50.20;93939.50;5129416;27;20055;-65
2021/04/30 07:06:19;;;;;;;19.33;5.28;;;;;;;19.36;50.05;93935.03;5126241;28;20059;-64
2021/04/30 07:08:44;;;;;;;29.08;6.32;;;;;;;19.44;49.86;93939.38;5125759;28;20027;-64
2021/04/30 07:11:10;;;;;;;20.48;6.75;;;;;;;19.55;49.29;93938.72;5130558;27;20041;-64
2021/04/30 07:13:36;;;;;;;14.00;4.80;;;;;;;19.67;48.99;93943.13;5116320;27;20023;-64
2021/04/30 07:16:05;;;;;;;16.67;5.85;;;;;;;19.78;48.84;93942.13;5126457;27;20398;-65
2021/04/30 07:18:31;;;;;;;14.23;4.55;;;;;;;19.86;47.86;93942.19;5130305;27;20072;-65
2021/04/30 07:20:57;;;;;;;17.42;4.30;;;;;;;19.96;46.85;93945.00;5130867;27;20102;-65
2021/04/30 07:23:23;;;;;;;16.98;5.15;;;;;;;20.06;47.59;93948.97;5111911;27;20031;-65
2021/04/30 07:25:50;;;;;;;20.10;5.22;;;;;;;20.18;47.57;93951.44;5127777;28;20168;-65
2021/04/30 07:28:17;;;;;;;20.73;5.25;;;;;;;20.26;47.67;93962.34;5127254;27;20126;-65
2021/04/30 07:30:43;;;;;;;17.63;4.93;;;;;;;20.32;47.37;93958.91;5122105;28;20110;-65
2021/04/30 07:33:09;;;;;;;22.35;4.85;;;;;;;20.37;46.91;93957.78;5130346;27;20030;-65
2021/04/30 07:35:34;;;;;;;12.20;4.82;;;;;;;20.43;46.03;93956.28;5129376;28;20023;-68
2021/04/30 07:38:00;;;;;;;10.20;3.92;;;;;;;20.42;45.10;93947.41;5120816;27;20098;-70
2021/04/30 07:40:26;;;;;;;17.42;3.92;;;;;;;20.39;45.11;93948.16;5124250;27;20015;-71
2021/04/30 07:42:51;;;;;;;16.23;4.85;;;;;;;20.40;44.26;93948.94;5129669;27;20030;-69
2021/04/30 07:45:17;;;;;;;17.73;4.43;;;;;;;20.37;45.07;93941.53;5129598;28;20371;-70
2021/04/30 07:47:43;;;;;;;13.70;3.33;;;;;;;20.47;43.85;93946.28;5129220;28;20043;-68
2021/04/30 07:50:08;;;;;;;20.55;4.40;;;;;;;20.50;42.90;93942.06;5124894;28;20028;-68
2021/04/30 07:52:34;;;;;;;21.35;3.55;;;;;;;20.57;42.86;93937.47;5124878;28;20534;-68
2021/04/30 07:55:02;;;;;;;12.30;3.42;;;;;;;20.63;42.65;93936.00;5124886;27;20131;-68
2021/04/30 07:57:29;;;;;;;17.48;3.72;;;;;;;20.72;42.17;93940.31;5127340;28;20074;-68
2021/04/30 07:59:54;;;;;;;15.15;3.78;;;;;;;20.75;42.19;93928.75;5114009;28;20019;-68
2021/04/30 08:02:20;;;;;;;13.73;3.55;;;;;;;20.89;41.98;93919.94;5126085;28;20413;-68
2021/04/30 08:04:47;;;;;;;14.13;3.55;;;;;;;20.96;40.67;93926.16;5119186;27;20024;-68
2021/04/30 08:07:14;;;;;;;12.10;3.25;;;;;;;21.07;40.76;93922.78;5126406;28;20035;-68
2021/04/30 08:09:41;;;;;;;11.77;3.30;;;;;;;21.18;41.07;93920.88;5126697;27;20027;-68
2021/04/30 08:12:07;;;;;;;26.13;4.63;;;;;;;21.32;41.36;93917.47;5122811;27;20046;-69
2021/04/30 08:14:32;;;;;;;21.10;3.25;;;;;;;21.45;40.72;93905.16;5132339;27;20027;-68
2021/04/30 08:16:58;;;;;;;23.25;3.50;;;;;;;21.56;40.44;93907.94;5125483;27;20020;-68
2021/04/30 08:19:25;;;;;;;12.77;3.50;;;;;;;21.71;41.14;93914.94;5129846;27;20019;-68
2021/04/30 08:21:50;;;;;;;14.68;3.60;;;;;;;21.88;40.83;93918.09;5130301;27;20030;-68
2021/04/30 08:24:16;;;;;;;14.18;3.90;;;;;;;22.03;40.44;93904.19;5134741;27;20058;-68
2021/04/30 08:26:41;;;;;;;14.30;3.00;;;;;;;22.15;39.38;93899.56;5131057;27;20037;-69
2021/04/30 08:29:07;;;;;;;15.50;3.70;;;;;;;22.19;38.54;93895.69;5123828;27;20054;-68
2021/04/30 08:31:32;;;;;;;12.98;3.47;;;;;;;22.29;38.54;93901.53;5132985;27;20087;-68
2021/04/30 08:33:58;;;;;;;14.27;3.53;;;;;;;22.34;38.20;93895.72;5121259;27;20471;-68
2021/04/30 08:36:23;;;;;;;13.93;2.85;;;;;;;22.40;37.38;93888.75;5129483;27;20019;-68
2021/04/30 08:38:49;;;;;;;15.43;3.22;;;;;;;22.45;36.60;93880.22;5124935;27;20049;-68
2021/04/30 08:41:18;;;;;;;22.30;3.70;;;;;;;22.40;39.11;93886.03;5133121;27;20029;-68
2021/04/30 08:43:44;;;;;;;17.73;4.18;;;;;;;22.30;39.18;93884.88;5130436;27;20471;-68
2021/04/30 08:46:12;;;;;;;32.13;3.95;;;;;;;22.41;38.84;93887.59;5126082;27;20102;-68
2021/04/30 08:48:38;;;;;;;14.13;3.83;;;;;;;22.44;37.43;93889.53;5122390;27;20050;-68
2021/04/30 08:51:03;;;;;;;15.18;3.28;;;;;;;22.53;37.95;93887.22;5129382;27;20019;-68
2021/04/30 08:53:29;;;;;;;14.77;3.30;;;;;;;22.54;37.34;93887.97;5128615;27;20457;-68
2021/04/30 08:55:54;;;;;;;26.02;3.22;;;;;;;22.56;37.04;93878.28;5130681;27;20019;-68
2021/04/30 08:58:26;;;;;;;15.73;3.65;;;;;;;22.62;37.50;93876.72;5128882;27;20505;-68
2021/04/30 09:00:53;;;;;;;14.15;3.22;;;;;;;22.76;37.34;93883.31;5131344;27;20042;-68
2021/04/30 09:03:18;;;;;;;13.73;4.03;;;;;;;22.92;37.67;93885.59;5126949;27;20039;-69
2021/04/30 09:05:48;;;;;;;14.60;3.92;;;;;;;23.04;38.03;93877.09;5131507;27;20125;-69
2021/04/30 09:08:15;;;;;;;15.88;3.75;;;;;;;23.16;37.51;93870.44;5129408;27;20034;-68
2021/04/30 09:10:42;;;;;;;16.75;3.33;;;;;;;23.27;37.51;93873.91;5117143;27;20023;-68
2021/04/30 09:13:13;;;;;;;20.77;3.75;;;;;;;23.34;37.04;93882.03;5129793;27;20027;-68
2021/04/30 09:15:41;;;;;;;13.57;3.78;;;;;;;23.47;36.99;93881.59;5131860;27;20038;-68
2021/04/30 09:18:28;;;;;;;19.65;3.40;;;;;;;23.60;36.03;93867.16;5129578;27;20459;-68
2021/04/30 09:20:55;;;;;;;11.82;2.80;;;;;;;23.66;35.09;93872.22;5131746;27;20443;-68
2021/04/30 09:23:38;;;;;;;18.00;3.60;;;;;;;23.73;35.74;93872.97;5132845;27;20058;-68
2021/04/30 09:26:20;;;;;;;9.25;3.05;;;;;;;23.66;36.21;93866.78;5128005;27;20027;-68
2021/04/30 09:28:58;;;;;;;19.08;3.75;;;;;;;23.59;35.60;93862.13;5122257;27;20394;-68
2021/04/30 09:31:38;;;;;;;11.80;2.65;;;;;;;23.76;35.95;93872.16;5131454;27;20042;-69
2021/04/30 09:34:19;;;;;;;15.85;3.15;;;;;;;23.89;34.80;93874.44;5128499;27;20038;-68
2021/04/30 09:37:06;;;;;;;22.55;3.13;;;;;;;23.99;33.96;93870.88;5128176;27;20072;-68
2021/04/30 09:39:51;;;;;;;12.75;4.13;;;;;;;24.11;35.09;93866.94;5130491;27;20030;-68
2021/04/30 09:42:18;;;;;;;10.40;2.97;;;;;;;24.14;34.25;93866.91;5123860;27;20034;-68
2021/04/30 09:44:50;;;;;;;10.20;2.80;;;;;;;24.16;34.51;93859.13;5116067;27;20019;-68
2021/04/30 09:47:17;;;;;;;;;;;;;;;24.22;33.64;93862.97;5118209;27;20066;-68
2021/04/30 09:49:46;;;;;;;15.35;4.07;;;;;;;24.29;33.41;93862.13;5126966;27;19923;-68
2021/04/30 09:52:12;;;;;;;11.88;2.67;;;;;;;24.40;33.11;93848.41;5127543;27;20501;-68
2021/04/30 09:54:39;;;;;;;11.23;2.35;;;;;;;24.43;32.65;93853.84;5127748;27;20035;-68
2021/04/30 09:57:06;;;;;;;14.38;3.53;;;;;;;24.27;32.50;93850.09;5127765;27;20090;-68
2021/04/30 09:59:32;;;;;;;17.58;3.65;;;;;;;24.29;32.78;93845.03;5128825;27;20607;-69
2021/04/30 10:02:06;;;;;;;13.07;2.67;;;;;;;24.30;31.79;93854.72;5120001;27;20019;-68
2021/04/30 10:04:36;;;;;;;13.25;3.08;;;;;;;24.35;32.35;93846.13;5130909;27;20046;-68
2021/04/30 10:07:06;;;;;;;12.27;2.45;;;;;;;24.34;32.00;93847.31;5132065;27;20023;-68
2021/04/30 10:09:33;;;;;;;11.25;2.83;;;;;;;24.34;32.16;93830.97;5119225;27;20032;-68
2021/04/30 10:12:16;;;;;;;12.52;2.17;;;;;;;24.42;31.11;93830.53;5130070;27;20027;-70
2021/04/30 10:14:41;;;;;;;11.05;2.75;;;;;;;24.64;32.31;93827.63;5147321;27;20030;-68
2021/04/30 10:17:07;;;;;;;16.50;2.70;;;;;;;24.83;32.24;93828.97;5123231;27;20041;-69
2021/04/30 10:19:32;;;;;;;12.27;2.90;;;;;;;25.04;32.70;93825.28;5128238;27;20088;-68
2021/04/30 10:21:59;;;;;;;13.38;3.80;;;;;;;25.09;31.63;93821.31;5121461;27;20019;-69
2021/04/30 10:24:26;;;;;;;21.48;3.90;;;;;;;25.27;32.52;93816.47;5115573;27;20479;-69
2021/04/30 10:26:54;;;;;;;23.42;3.80;;;;;;;25.43;31.35;93813.94;5127602;27;20436;-68
2021/04/30 10:29:23;;;;;;;15.77;3.17;;;;;;;25.56;31.33;93797.78;5130274;27;20050;-69
2021/04/30 10:31:52;;;;;;;7.00;2.42;;;;;;;25.53;29.60;93787.69;5127334;27;20054;-70
2021/04/30 10:34:24;;;;;;;8.68;2.55;;;;;;;25.44;29.97;93792.88;5126047;27;20041;-68
2021/04/30 10:36:59;;;;;;;11.10;3.28;;;;;;;25.56;30.29;93794.28;5122633;27;20080;-68
2021/04/30 10:39:28;;;;;;;9.32;2.90;;;;;;;25.63;30.54;93794.19;5121621;27;20064;-68
2021/04/30 10:41:54;;;;;;;18.80;2.85;;;;;;;25.68;30.78;93801.13;5126998;27;20026;-68
2021/04/30 10:44:28;;;;;;;14.90;2.35;;;;;;;25.85;30.31;93788.41;5119642;27;20046;-68
2021/04/30 10:47:09;;;;;;;15.85;3.47;;;;;;;25.99;29.68;93782.78;5126651;27;20088;-69
2021/04/30 10:49:36;;;;;;;13.80;2.80;;;;;;;26.02;29.06;93782.72;5123848;27;20150;-68
2021/04/30 10:52:08;;;;;;;12.05;2.50;;;;;;;26.12;29.69;93774.78;5130064;27;20015;-68
2021/04/30 10:54:38;;;;;;;12.38;2.20;;;;;;;26.08;28.79;93760.41;5130707;27;20149;-68
2021/04/30 10:57:17;;;;;;;14.27;2.67;;;;;;;26.16;29.55;93767.31;5130074;27;20072;-69
2021/04/30 10:59:51;;;;;;;16.73;3.35;;;;;;;26.27;28.53;93753.47;5128915;27;20042;-68
2021/04/30 11:02:30;;;;;;;7.07;2.40;;;;;;;26.32;27.66;93755.72;5113574;27;20418;-69
2021/04/30 11:05:11;;;;;;;17.60;2.95;;;;;;;26.46;27.13;93755.50;5124305;27;20034;-69
2021/04/30 11:07:47;;;;;;;8.52;2.08;;;;;;;26.52;26.81;93742.88;5126165;27;20118;-68
2021/04/30 11:10:30;;;;;;;7.78;2.17;;;;;;;26.64;25.58;93743.47;5143831;27;20121;-68
2021/04/30 11:13:00;;;;;;;12.60;2.08;;;;;;;26.65;25.34;93728.63;5128214;27;20172;-68
2021/04/30 11:15:30;;;;;;;16.05;2.55;;;;;;;26.69;25.47;93729.34;5126308;28;20057;-68
2021/04/30 11:17:56;;;;;;;7.05;2.05;;;;;;;26.80;25.01;93729.88;5126542;28;20110;-69
2021/04/30 11:20:28;;;;;;;12.95;1.98;;;;;;;26.80;24.44;93725.19;5121844;28;20164;-68
2021/04/30 11:23:22;;;;;;;8.82;2.47;;;;;;;26.72;25.11;93723.78;5121066;27;20023;-69